sensor_id;sensor_type;location;lat;lon;timestamp;pressure;altitude;pressure_sealevel;temperature;humidity
15529;BME280;7866;52.280;9.500;2022-09-03T00:02:24;100324.84;;;15.27;56.32
15529;BME280;7866;52.280;9.500;2022-09-03T00:07:34;100325.38;;;15.09;56.68
15529;BME280;7866;52.280;9.500;2022-09-03T00:12:39;100314.16;;;15.06;56.45
15529;BME280;7866;52.280;9.500;2022-09-03T00:17:46;100312.78;;;15.16;56.06
15529;BME280;7866;52.280;9.500;2022-09-03T00:22:51;100309.81;;;15.11;56.49
15529;BME280;7866;52.280;9.500;2022-09-03T00:27:56;100307.16;;;14.83;57.18
15529;BME280;7866;52.280;9.500;2022-09-03T00:33:03;100308.50;;;14.66;57.80
15529;BME280;7866;52.280;9.500;2022-09-03T00:38:07;100302.75;;;14.75;57.51
15529;BME280;7866;52.280;9.500;2022-09-03T00:43:17;100299.25;;;14.75;57.66
15529;BME280;7866;52.280;9.500;2022-09-03T00:48:25;100303.78;;;14.74;57.37
15529;BME280;7866;52.280;9.500;2022-09-03T00:53:36;100305.28;;;14.77;57.27
15529;BME280;7866;52.280;9.500;2022-09-03T00:58:52;100291.28;;;14.60;57.98
15529;BME280;7866;52.280;9.500;2022-09-03T01:04:07;100298.25;;;14.54;58.19
15529;BME280;7866;52.280;9.500;2022-09-03T01:09:27;100299.22;;;14.47;58.55
15529;BME280;7866;52.280;9.500;2022-09-03T01:14:42;100301.16;;;14.53;58.00
15529;BME280;7866;52.280;9.500;2022-09-03T01:20:15;100301.56;;;14.50;58.44
15529;BME280;7866;52.280;9.500;2022-09-03T01:25:35;100292.25;;;14.52;58.13
15529;BME280;7866;52.280;9.500;2022-09-03T01:30:42;100299.16;;;14.62;57.76
15529;BME280;7866;52.280;9.500;2022-09-03T01:35:52;100298.13;;;14.63;57.86
15529;BME280;7866;52.280;9.500;2022-09-03T01:41:05;100302.44;;;14.57;57.91
15529;BME280;7866;52.280;9.500;2022-09-03T01:46:29;100303.91;;;14.60;58.30
15529;BME280;7866;52.280;9.500;2022-09-03T01:51:34;100297.75;;;14.44;58.52
15529;BME280;7866;52.280;9.500;2022-09-03T01:56:44;100293.53;;;14.35;59.50
15529;BME280;7866;52.280;9.500;2022-09-03T02:01:56;100299.94;;;14.34;59.67
15529;BME280;7866;52.280;9.500;2022-09-03T02:07:02;100301.28;;;14.23;59.54
15529;BME280;7866;52.280;9.500;2022-09-03T02:12:07;100303.75;;;14.18;59.96
15529;BME280;7866;52.280;9.500;2022-09-03T02:17:13;100311.19;;;14.16;60.10
15529;BME280;7866;52.280;9.500;2022-09-03T02:22:14;100308.06;;;14.13;60.14
15529;BME280;7866;52.280;9.500;2022-09-03T02:27:18;100305.75;;;14.10;60.37
15529;BME280;7866;52.280;9.500;2022-09-03T02:32:21;100297.09;;;13.93;60.70
15529;BME280;7866;52.280;9.500;2022-09-03T02:37:23;100296.13;;;14.00;60.65
15529;BME280;7866;52.280;9.500;2022-09-03T02:42:25;100298.69;;;13.87;60.88
15529;BME280;7866;52.280;9.500;2022-09-03T02:47:31;100298.81;;;13.79;61.68
15529;BME280;7866;52.280;9.500;2022-09-03T02:52:33;100300.91;;;13.62;61.60
15529;BME280;7866;52.280;9.500;2022-09-03T02:57:35;100304.56;;;13.76;61.31
15529;BME280;7866;52.280;9.500;2022-09-03T03:02:38;100300.47;;;13.80;61.36
15529;BME280;7866;52.280;9.500;2022-09-03T03:07:41;100306.75;;;13.66;61.74
15529;BME280;7866;52.280;9.500;2022-09-03T03:12:42;100300.25;;;13.60;61.92
15529;BME280;7866;52.280;9.500;2022-09-03T03:17:46;100300.19;;;13.53;62.52
15529;BME280;7866;52.280;9.500;2022-09-03T03:22:47;100288.31;;;13.48;62.50
15529;BME280;7866;52.280;9.500;2022-09-03T03:27:50;100296.47;;;13.54;62.70
15529;BME280;7866;52.280;9.500;2022-09-03T03:32:54;100291.41;;;13.45;62.58
15529;BME280;7866;52.280;9.500;2022-09-03T03:37:56;100289.66;;;13.37;62.91
15529;BME280;7866;52.280;9.500;2022-09-03T03:42:58;100293.81;;;13.40;62.63
15529;BME280;7866;52.280;9.500;2022-09-03T03:48:01;100293.53;;;13.35;62.81
15529;BME280;7866;52.280;9.500;2022-09-03T03:53:02;100298.63;;;13.15;63.44
15529;BME280;7866;52.280;9.500;2022-09-03T03:58:04;100290.94;;;13.12;63.44
15529;BME280;7866;52.280;9.500;2022-09-03T04:03:07;100286.84;;;13.16;63.50
15529;BME280;7866;52.280;9.500;2022-09-03T04:08:09;100279.81;;;13.15;63.73
15529;BME280;7866;52.280;9.500;2022-09-03T04:13:10;100291.75;;;13.12;63.70
15529;BME280;7866;52.280;9.500;2022-09-03T04:18:13;100301.53;;;12.98;63.85
15529;BME280;7866;52.280;9.500;2022-09-03T04:23:15;100295.38;;;13.04;64.02
15529;BME280;7866;52.280;9.500;2022-09-03T04:28:17;100296.44;;;12.89;64.45
15529;BME280;7866;52.280;9.500;2022-09-03T04:33:20;100292.97;;;12.80;64.65
15529;BME280;7866;52.280;9.500;2022-09-03T04:38:25;100294.84;;;12.79;64.30
15529;BME280;7866;52.280;9.500;2022-09-03T04:43:29;100283.06;;;12.80;64.86
15529;BME280;7866;52.280;9.500;2022-09-03T04:48:34;100301.78;;;12.74;65.13
15529;BME280;7866;52.280;9.500;2022-09-03T04:53:38;100288.91;;;12.84;64.98
15529;BME280;7866;52.280;9.500;2022-09-03T04:58:40;100294.84;;;12.79;64.79
15529;BME280;7866;52.280;9.500;2022-09-03T05:03:45;100290.75;;;12.83;64.99
15529;BME280;7866;52.280;9.500;2022-09-03T05:08:47;100295.31;;;12.98;64.49
15529;BME280;7866;52.280;9.500;2022-09-03T05:13:50;100291.75;;;13.12;63.62
15529;BME280;7866;52.280;9.500;2022-09-03T05:18:54;100278.81;;;13.30;63.25
15529;BME280;7866;52.280;9.500;2022-09-03T05:23:59;100284.53;;;13.42;62.65
15529;BME280;7866;52.280;9.500;2022-09-03T05:29:02;100282.81;;;13.56;62.74
15529;BME280;7866;52.280;9.500;2022-09-03T05:34:08;100288.53;;;13.68;62.30
15529;BME280;7866;52.280;9.500;2022-09-03T05:39:10;100292.91;;;13.90;61.43
15529;BME280;7866;52.280;9.500;2022-09-03T05:44:12;100285.53;;;13.99;61.67
15529;BME280;7866;52.280;9.500;2022-09-03T05:49:15;100289.19;;;14.13;61.40
15529;BME280;7866;52.280;9.500;2022-09-03T05:54:17;100295.31;;;14.28;61.14
15529;BME280;7866;52.280;9.500;2022-09-03T05:59:18;100292.09;;;14.39;60.77
15529;BME280;7866;52.280;9.500;2022-09-03T06:04:21;100290.19;;;14.54;60.38
15529;BME280;7866;52.280;9.500;2022-09-03T06:09:23;100300.16;;;14.89;59.93
15529;BME280;7866;52.280;9.500;2022-09-03T06:14:24;100302.38;;;15.20;59.11
15529;BME280;7866;52.280;9.500;2022-09-03T06:19:27;100298.19;;;15.52;58.34
15529;BME280;7866;52.280;9.500;2022-09-03T06:24:29;100296.47;;;15.92;57.29
15529;BME280;7866;52.280;9.500;2022-09-03T06:29:31;100284.41;;;16.21;57.06
15529;BME280;7866;52.280;9.500;2022-09-03T06:34:36;100294.63;;;16.53;56.52
15529;BME280;7866;52.280;9.500;2022-09-03T06:39:37;100301.88;;;16.72;56.05
15529;BME280;7866;52.280;9.500;2022-09-03T06:44:39;100300.00;;;16.79;56.09
15529;BME280;7866;52.280;9.500;2022-09-03T06:49:42;100298.13;;;16.93;56.05
15529;BME280;7866;52.280;9.500;2022-09-03T06:54:44;100294.72;;;17.11;55.62
15529;BME280;7866;52.280;9.500;2022-09-03T06:59:45;100296.03;;;17.46;55.63
15529;BME280;7866;52.280;9.500;2022-09-03T07:04:50;100299.38;;;17.48;55.12
15529;BME280;7866;52.280;9.500;2022-09-03T07:09:52;100303.72;;;17.56;54.82
15529;BME280;7866;52.280;9.500;2022-09-03T07:14:53;100302.81;;;17.69;54.84
15529;BME280;7866;52.280;9.500;2022-09-03T07:19:56;100310.56;;;17.59;55.06
15529;BME280;7866;52.280;9.500;2022-09-03T07:24:58;100305.75;;;18.06;54.61
15529;BME280;7866;52.280;9.500;2022-09-03T07:30:01;100304.59;;;18.20;53.92
15529;BME280;7866;52.280;9.500;2022-09-03T07:35:05;100300.94;;;18.58;53.45
15529;BME280;7866;52.280;9.500;2022-09-03T07:40:08;100303.34;;;18.73;53.01
15529;BME280;7866;52.280;9.500;2022-09-03T07:45:10;100298.47;;;18.31;53.89
15529;BME280;7866;52.280;9.500;2022-09-03T07:50:14;100291.31;;;18.62;53.55
15529;BME280;7866;52.280;9.500;2022-09-03T07:55:16;100299.81;;;18.90;52.76
15529;BME280;7866;52.280;9.500;2022-09-03T08:00:18;100292.78;;;18.83;52.76
15529;BME280;7866;52.280;9.500;2022-09-03T08:05:21;100298.31;;;18.76;52.94
15529;BME280;7866;52.280;9.500;2022-09-03T08:10:23;100301.63;;;19.15;52.44
15529;BME280;7866;52.280;9.500;2022-09-03T08:15:27;100309.16;;;18.76;53.54
15529;BME280;7866;52.280;9.500;2022-09-03T08:20:30;100308.28;;;19.01;52.81
15529;BME280;7866;52.280;9.500;2022-09-03T08:25:32;100313.34;;;19.15;52.83
15529;BME280;7866;52.280;9.500;2022-09-03T08:30:35;100311.75;;;19.08;52.93
15529;BME280;7866;52.280;9.500;2022-09-03T08:35:38;100310.78;;;19.20;52.70
15529;BME280;7866;52.280;9.500;2022-09-03T08:40:40;100307.38;;;19.25;52.52
15529;BME280;7866;52.280;9.500;2022-09-03T08:45:42;100301.16;;;19.55;51.49
15529;BME280;7866;52.280;9.500;2022-09-03T08:50:47;100305.50;;;19.44;51.62
15529;BME280;7866;52.280;9.500;2022-09-03T08:56:02;100302.31;;;19.65;50.97
15529;BME280;7866;52.280;9.500;2022-09-03T09:01:11;100297.03;;;19.82;50.87
15529;BME280;7866;52.280;9.500;2022-09-03T09:06:20;100308.16;;;20.34;50.06
15529;BME280;7866;52.280;9.500;2022-09-03T09:11:32;100305.69;;;20.33;48.93
15529;BME280;7866;52.280;9.500;2022-09-03T09:16:44;100304.34;;;20.65;48.24
15529;BME280;7866;52.280;9.500;2022-09-03T09:21:52;100298.16;;;20.94;47.99
15529;BME280;7866;52.280;9.500;2022-09-03T09:26:58;100291.53;;;21.01;48.06
15529;BME280;7866;52.280;9.500;2022-09-03T09:32:01;100274.69;;;21.16;47.40
15529;BME280;7866;52.280;9.500;2022-09-03T09:37:08;100267.22;;;21.35;46.82
15529;BME280;7866;52.280;9.500;2022-09-03T09:42:11;100272.03;;;21.73;46.84
15529;BME280;7866;52.280;9.500;2022-09-03T09:47:20;100266.53;;;22.02;45.60
15529;BME280;7866;52.280;9.500;2022-09-03T09:52:25;100267.41;;;22.53;45.67
15529;BME280;7866;52.280;9.500;2022-09-03T09:57:28;100251.88;;;22.36;44.81
15529;BME280;7866;52.280;9.500;2022-09-03T10:02:33;100242.75;;;22.65;43.91
15529;BME280;7866;52.280;9.500;2022-09-03T10:07:38;100244.47;;;22.71;44.53
15529;BME280;7866;52.280;9.500;2022-09-03T10:12:41;100250.31;;;22.96;43.72
15529;BME280;7866;52.280;9.500;2022-09-03T10:17:54;100236.78;;;22.90;42.00
15529;BME280;7866;52.280;9.500;2022-09-03T10:23:09;100227.81;;;23.11;42.30
15529;BME280;7866;52.280;9.500;2022-09-03T10:28:12;100228.91;;;23.10;42.56
15529;BME280;7866;52.280;9.500;2022-09-03T10:33:18;100235.81;;;23.40;42.04
15529;BME280;7866;52.280;9.500;2022-09-03T10:38:27;100227.97;;;23.48;41.55
15529;BME280;7866;52.280;9.500;2022-09-03T10:43:44;100213.88;;;23.61;40.70
15529;BME280;7866;52.280;9.500;2022-09-03T10:49:10;100218.59;;;23.39;40.77
15529;BME280;7866;52.280;9.500;2022-09-03T10:54:28;100222.31;;;23.55;40.26
15529;BME280;7866;52.280;9.500;2022-09-03T10:59:43;100223.00;;;23.94;40.62
15529;BME280;7866;52.280;9.500;2022-09-03T11:04:52;100209.03;;;23.96;40.17
15529;BME280;7866;52.280;9.500;2022-09-03T11:10:09;100208.94;;;23.58;40.71
15529;BME280;7866;52.280;9.500;2022-09-03T11:15:17;100211.16;;;23.89;40.82
15529;BME280;7866;52.280;9.500;2022-09-03T11:20:22;100199.88;;;24.17;40.68
15529;BME280;7866;52.280;9.500;2022-09-03T11:25:30;100186.47;;;24.16;40.09
15529;BME280;7866;52.280;9.500;2022-09-03T11:30:45;100187.72;;;24.35;39.18
15529;BME280;7866;52.280;9.500;2022-09-03T11:36:05;100195.03;;;24.29;39.94
15529;BME280;7866;52.280;9.500;2022-09-03T11:41:13;100194.19;;;24.24;38.91
15529;BME280;7866;52.280;9.500;2022-09-03T11:46:27;100179.72;;;24.28;39.09
15529;BME280;7866;52.280;9.500;2022-09-03T11:51:31;100176.06;;;24.13;39.24
15529;BME280;7866;52.280;9.500;2022-09-03T11:56:36;100175.44;;;23.68;40.04
15529;BME280;7866;52.280;9.500;2022-09-03T12:01:40;100180.09;;;24.05;39.50
15529;BME280;7866;52.280;9.500;2022-09-03T12:07:05;100170.88;;;24.16;38.71
15529;BME280;7866;52.280;9.500;2022-09-03T12:12:26;100170.34;;;24.14;38.47
15529;BME280;7866;52.280;9.500;2022-09-03T12:17:34;100157.97;;;24.06;38.78
15529;BME280;7866;52.280;9.500;2022-09-03T12:22:38;100150.53;;;24.39;38.77
15529;BME280;7866;52.280;9.500;2022-09-03T12:27:43;100155.19;;;24.39;37.47
15529;BME280;7866;52.280;9.500;2022-09-03T12:32:46;100140.72;;;24.48;37.43
15529;BME280;7866;52.280;9.500;2022-09-03T12:37:50;100159.47;;;24.77;37.71
15529;BME280;7866;52.280;9.500;2022-09-03T12:42:54;100153.81;;;24.94;37.78
15529;BME280;7866;52.280;9.500;2022-09-03T12:47:56;100148.19;;;24.58;37.50
15529;BME280;7866;52.280;9.500;2022-09-03T12:52:59;100137.81;;;24.70;37.27
15529;BME280;7866;52.280;9.500;2022-09-03T12:58:06;100141.94;;;24.73;37.34
15529;BME280;7866;52.280;9.500;2022-09-03T13:03:14;100138.44;;;24.88;36.52
15529;BME280;7866;52.280;9.500;2022-09-03T13:08:20;100137.84;;;24.80;36.42
15529;BME280;7866;52.280;9.500;2022-09-03T13:13:25;100135.16;;;24.96;36.27
15529;BME280;7866;52.280;9.500;2022-09-03T13:18:30;100129.16;;;24.94;36.51
15529;BME280;7866;52.280;9.500;2022-09-03T13:23:54;100131.69;;;25.21;34.30
15529;BME280;7866;52.280;9.500;2022-09-03T13:29:15;100122.94;;;25.29;34.57
15529;BME280;7866;52.280;9.500;2022-09-03T13:34:28;100130.38;;;25.44;34.58
15529;BME280;7866;52.280;9.500;2022-09-03T13:39:38;100133.66;;;25.46;35.05
15529;BME280;7866;52.280;9.500;2022-09-03T13:44:46;100130.63;;;25.37;35.30
15529;BME280;7866;52.280;9.500;2022-09-03T13:49:52;100134.47;;;25.41;35.53
15529;BME280;7866;52.280;9.500;2022-09-03T13:55:18;100130.34;;;25.49;34.18
15529;BME280;7866;52.280;9.500;2022-09-03T14:00:26;100125.16;;;25.63;34.40
15529;BME280;7866;52.280;9.500;2022-09-03T14:05:40;100123.13;;;24.34;36.29
15529;BME280;7866;52.280;9.500;2022-09-03T14:10:53;100115.78;;;24.40;35.50
15529;BME280;7866;52.280;9.500;2022-09-03T14:16:04;100122.16;;;24.61;34.95
15529;BME280;7866;52.280;9.500;2022-09-03T14:21:13;100118.91;;;24.21;36.52
15529;BME280;7866;52.280;9.500;2022-09-03T14:26:20;100125.06;;;23.96;36.29
15529;BME280;7866;52.280;9.500;2022-09-03T14:31:38;100129.97;;;23.94;36.35
15529;BME280;7866;52.280;9.500;2022-09-03T14:36:49;100138.00;;;24.06;35.92
15529;BME280;7866;52.280;9.500;2022-09-03T14:42:02;100135.50;;;24.04;35.72
15529;BME280;7866;52.280;9.500;2022-09-03T14:47:26;100127.41;;;24.20;34.98
15529;BME280;7866;52.280;9.500;2022-09-03T14:52:58;100129.34;;;24.72;33.39
15529;BME280;7866;52.280;9.500;2022-09-03T14:58:18;100129.53;;;24.50;35.27
15529;BME280;7866;52.280;9.500;2022-09-03T15:03:47;100126.13;;;25.00;33.20
15529;BME280;7866;52.280;9.500;2022-09-03T15:09:03;100118.84;;;25.26;34.40
15529;BME280;7866;52.280;9.500;2022-09-03T15:14:14;100134.47;;;25.51;33.98
15529;BME280;7866;52.280;9.500;2022-09-03T15:19:38;100126.66;;;24.97;32.91
15529;BME280;7866;52.280;9.500;2022-09-03T15:24:50;100114.13;;;25.12;33.96
15529;BME280;7866;52.280;9.500;2022-09-03T15:29:58;100130.78;;;24.95;33.99
15529;BME280;7866;52.280;9.500;2022-09-03T15:35:08;100122.03;;;24.98;33.63
15529;BME280;7866;52.280;9.500;2022-09-03T15:40:26;100132.13;;;24.92;33.28
15529;BME280;7866;52.280;9.500;2022-09-03T15:45:36;100126.94;;;24.91;34.25
15529;BME280;7866;52.280;9.500;2022-09-03T15:50:49;100129.09;;;24.83;34.74
15529;BME280;7866;52.280;9.500;2022-09-03T15:56:03;100128.16;;;24.57;33.50
15529;BME280;7866;52.280;9.500;2022-09-03T16:01:18;100129.84;;;24.21;34.67
15529;BME280;7866;52.280;9.500;2022-09-03T16:06:30;100131.66;;;24.05;34.85
15529;BME280;7866;52.280;9.500;2022-09-03T16:11:51;100133.56;;;24.00;35.09
15529;BME280;7866;52.280;9.500;2022-09-03T16:16:59;100120.19;;;23.66;35.19
15529;BME280;7866;52.280;9.500;2022-09-03T16:22:07;100138.06;;;23.52;35.30
15529;BME280;7866;52.280;9.500;2022-09-03T16:27:16;100137.44;;;23.45;35.56
15529;BME280;7866;52.280;9.500;2022-09-03T16:32:29;100149.16;;;23.40;36.23
15529;BME280;7866;52.280;9.500;2022-09-03T16:37:45;100154.47;;;23.25;35.49
15529;BME280;7866;52.280;9.500;2022-09-03T16:42:57;100158.47;;;23.17;36.05
15529;BME280;7866;52.280;9.500;2022-09-03T16:48:11;100158.72;;;23.10;36.11
15529;BME280;7866;52.280;9.500;2022-09-03T16:53:26;100148.59;;;23.11;36.31
15529;BME280;7866;52.280;9.500;2022-09-03T16:58:38;100159.22;;;23.07;36.72
15529;BME280;7866;52.280;9.500;2022-09-03T17:09:37;100160.31;;;23.06;35.59
15529;BME280;7866;52.280;9.500;2022-09-03T17:15:12;100164.88;;;23.01;36.41
15529;BME280;7866;52.280;9.500;2022-09-03T17:20:20;100158.69;;;22.88;36.95
15529;BME280;7866;52.280;9.500;2022-09-03T17:25:30;100155.75;;;22.73;36.71
15529;BME280;7866;52.280;9.500;2022-09-03T17:30:40;100162.41;;;22.60;37.40
15529;BME280;7866;52.280;9.500;2022-09-03T17:35:52;100165.69;;;22.41;37.87
15529;BME280;7866;52.280;9.500;2022-09-03T17:41:10;100174.00;;;21.95;39.58
15529;BME280;7866;52.280;9.500;2022-09-03T17:46:27;100183.06;;;21.67;40.09
15529;BME280;7866;52.280;9.500;2022-09-03T17:51:38;100176.81;;;21.38;40.85
15529;BME280;7866;52.280;9.500;2022-09-03T17:56:46;100187.28;;;21.17;41.75
15529;BME280;7866;52.280;9.500;2022-09-03T18:01:53;100194.09;;;21.03;42.35
15529;BME280;7866;52.280;9.500;2022-09-03T18:07:11;100196.16;;;20.84;42.77
15529;BME280;7866;52.280;9.500;2022-09-03T18:12:27;100205.66;;;20.70;43.50
15529;BME280;7866;52.280;9.500;2022-09-03T18:17:36;100217.84;;;20.67;43.35
15529;BME280;7866;52.280;9.500;2022-09-03T18:22:47;100218.94;;;20.55;43.65
15529;BME280;7866;52.280;9.500;2022-09-03T18:28:12;100218.81;;;20.50;43.88
15529;BME280;7866;52.280;9.500;2022-09-03T18:33:34;100227.19;;;20.36;43.95
15529;BME280;7866;52.280;9.500;2022-09-03T18:38:57;100237.22;;;20.24;44.24
15529;BME280;7866;52.280;9.500;2022-09-03T18:44:30;100246.56;;;20.16;44.23
15529;BME280;7866;52.280;9.500;2022-09-03T18:49:59;100248.31;;;19.99;44.30
15529;BME280;7866;52.280;9.500;2022-09-03T18:55:28;100255.41;;;19.70;44.46
15529;BME280;7866;52.280;9.500;2022-09-03T19:01:03;100255.22;;;19.53;45.30
15529;BME280;7866;52.280;9.500;2022-09-03T19:06:32;100256.91;;;19.36;45.23
15529;BME280;7866;52.280;9.500;2022-09-03T19:12:01;100253.38;;;19.17;45.72
15529;BME280;7866;52.280;9.500;2022-09-03T19:17:31;100254.06;;;19.12;45.71
15529;BME280;7866;52.280;9.500;2022-09-03T19:22:55;100267.56;;;19.01;45.64
15529;BME280;7866;52.280;9.500;2022-09-03T19:28:17;100268.19;;;18.84;45.78
15529;BME280;7866;52.280;9.500;2022-09-03T19:33:44;100273.28;;;18.74;46.08
15529;BME280;7866;52.280;9.500;2022-09-03T19:39:16;100275.03;;;18.62;46.24
15529;BME280;7866;52.280;9.500;2022-09-03T19:44:53;100291.88;;;18.45;46.93
15529;BME280;7866;52.280;9.500;2022-09-03T19:50:21;100290.44;;;18.43;46.46
15529;BME280;7866;52.280;9.500;2022-09-03T19:55:44;100298.47;;;18.31;47.01
15529;BME280;7866;52.280;9.500;2022-09-03T20:01:04;100292.03;;;18.26;46.44
15529;BME280;7866;52.280;9.500;2022-09-03T20:06:24;100292.94;;;18.19;47.17
15529;BME280;7866;52.280;9.500;2022-09-03T20:11:45;100299.66;;;18.10;47.30
15529;BME280;7866;52.280;9.500;2022-09-03T20:16:59;100312.00;;;18.06;48.10
15529;BME280;7866;52.280;9.500;2022-09-03T20:22:13;100314.13;;;17.97;48.42
15529;BME280;7866;52.280;9.500;2022-09-03T20:27:28;100319.78;;;17.96;48.45
15529;BME280;7866;52.280;9.500;2022-09-03T20:32:54;100319.81;;;17.89;48.44
15529;BME280;7866;52.280;9.500;2022-09-03T20:38:08;100315.72;;;17.80;47.98
15529;BME280;7866;52.280;9.500;2022-09-03T20:43:32;100320.28;;;17.73;48.85
15529;BME280;7866;52.280;9.500;2022-09-03T20:48:45;100328.66;;;17.65;48.80
15529;BME280;7866;52.280;9.500;2022-09-03T20:54:03;100340.81;;;17.56;49.46
15529;BME280;7866;52.280;9.500;2022-09-03T20:59:11;100342.06;;;17.46;49.20
15529;BME280;7866;52.280;9.500;2022-09-03T21:04:29;100352.91;;;17.46;49.63
15529;BME280;7866;52.280;9.500;2022-09-03T21:09:41;100361.31;;;17.32;49.96
15529;BME280;7866;52.280;9.500;2022-09-03T21:14:49;100365.66;;;17.26;49.55
15529;BME280;7866;52.280;9.500;2022-09-03T21:20:02;100371.09;;;17.19;50.45
15529;BME280;7866;52.280;9.500;2022-09-03T21:25:12;100369.84;;;17.22;50.66
15529;BME280;7866;52.280;9.500;2022-09-03T21:30:17;100375.06;;;17.10;50.90
15529;BME280;7866;52.280;9.500;2022-09-03T21:35:23;100370.94;;;17.08;51.33
15529;BME280;7866;52.280;9.500;2022-09-03T21:40:28;100374.47;;;17.08;51.37
15529;BME280;7866;52.280;9.500;2022-09-03T21:45:35;100361.56;;;16.90;51.59
15529;BME280;7866;52.280;9.500;2022-09-03T21:50:45;100370.53;;;16.97;51.28
15529;BME280;7866;52.280;9.500;2022-09-03T21:56:07;100378.84;;;16.89;52.46
15529;BME280;7866;52.280;9.500;2022-09-03T22:01:15;100373.88;;;16.93;51.76
15529;BME280;7866;52.280;9.500;2022-09-03T22:06:25;100379.69;;;16.90;52.29
15529;BME280;7866;52.280;9.500;2022-09-03T22:11:36;100379.06;;;16.88;52.33
15529;BME280;7866;52.280;9.500;2022-09-03T22:16:45;100381.56;;;16.83;52.35
15529;BME280;7866;52.280;9.500;2022-09-03T22:21:52;100380.72;;;16.82;53.04
15529;BME280;7866;52.280;9.500;2022-09-03T22:27:03;100379.69;;;16.77;52.85
15529;BME280;7866;52.280;9.500;2022-09-03T22:32:19;100369.50;;;16.72;53.43
15529;BME280;7866;52.280;9.500;2022-09-03T22:37:35;100371.34;;;16.65;54.14
15529;BME280;7866;52.280;9.500;2022-09-03T22:43:02;100370.09;;;16.61;54.41
15529;BME280;7866;52.280;9.500;2022-09-03T22:48:17;100368.44;;;16.60;53.93
15529;BME280;7866;52.280;9.500;2022-09-03T22:53:42;100378.81;;;16.49;54.93
15529;BME280;7866;52.280;9.500;2022-09-03T22:58:54;100379.03;;;16.41;54.36
15529;BME280;7866;52.280;9.500;2022-09-03T23:04:02;100385.47;;;16.40;54.73
15529;BME280;7866;52.280;9.500;2022-09-03T23:09:09;100394.22;;;16.36;54.40
15529;BME280;7866;52.280;9.500;2022-09-03T23:14:19;100398.94;;;16.27;55.21
15529;BME280;7866;52.280;9.500;2022-09-03T23:19:27;100387.91;;;16.15;55.05
15529;BME280;7866;52.280;9.500;2022-09-03T23:24:42;100387.50;;;16.18;55.00
15529;BME280;7866;52.280;9.500;2022-09-03T23:29:50;100391.88;;;16.13;55.33
15529;BME280;7866;52.280;9.500;2022-09-03T23:34:53;100390.81;;;16.14;55.10
15529;BME280;7866;52.280;9.500;2022-09-03T23:40:15;100382.47;;;16.02;56.38
15529;BME280;7866;52.280;9.500;2022-09-03T23:45:30;100388.72;;;15.96;55.93
15529;BME280;7866;52.280;9.500;2022-09-03T23:50:38;100392.88;;;15.92;55.60
15529;BME280;7866;52.280;9.500;2022-09-03T23:55:52;100397.22;;;15.93;55.48
